Latest Weather Observations for Holsworthy

IDN60901

Issued at 3:21 pm EST Thursday 28 May 2020 (issued every 10 minutes, with the page automatically refreshed every 10 minutes)

About weather observations | Map of Sydney area stations | Latest observations for Sydney area | Other Formats
Station Details ID: 066161 Name: HOLSWORTHY AERODROME AWS Lat: -33.99 Lon: 150.95 Height: 68.16 m
Data from the previous 72 hours. | See also: Recent months at Holsworthy
Date/Time
EST
Temp
°C
App
Temp
°C
Dew
Point
°C
Rel
Hum
%
Delta-T
°C
Wind Press
QNH
hPa
Press
MSL
hPa
Rain since
9am
mm
Dir  Spd
km/h
Gust
km/h
Spd
kts
Gust
kts
28/03:00pm 20.2 18.9 11.4 57 4.9 S 9 17 5 9 1019.4 1019.3 0.0
28/02:30pm 21.2 19.0 9.4 47 6.3 SW 11 17 6 9 1019.2 1019.1 0.0
28/02:00pm 21.2 19.4 11.0 52 5.6 WSW 11 17 6 9 1019.3 1019.2 0.0
28/01:30pm 20.7 18.6 11.1 54 5.3 W 13 22 7 12 1019.3 1019.2 0.0
28/01:00pm 20.3 18.1 10.7 54 5.2 WSW 13 17 7 9 1019.7 1019.6 0.0
28/12:30pm 19.7 17.2 10.9 57 4.8 W 15 20 8 11 1020.0 1019.9 0.0
28/12:00pm 19.0 16.9 11.1 60 4.3 W 13 17 7 9 1020.4 1020.3 0.0
28/11:30am 18.4 16.7 11.2 63 3.9 WNW 11 19 6 10 1020.8 1020.7 0.0
28/11:00am 17.6 15.4 10.9 65 3.6 WNW 13 19 7 10 1021.2 1021.1 0.0
28/10:30am 16.6 14.7 10.5 67 3.2 W 11 15 6 8 1021.5 1021.4 0.0
28/10:00am 15.7 14.3 10.9 73 2.6 WNW 9 13 5 7 1021.9 1021.9 0.0
28/09:30am 14.1 12.6 10.5 79 1.9 WNW 9 15 5 8 1022.0 1022.0 0.0
28/09:00am 12.6 10.8 10.8 89 0.9 W 11 15 6 8 1021.8 1021.8 0.2
28/08:30am 10.9 9.9 10.4 97 0.3 WSW 6 9 3 5 1021.7 1021.6 0.2
28/08:00am 9.5 7.6 9.2 98 0.1 WSW 9 13 5 7 1021.6 1021.5 0.2
28/07:30am 8.6 6.6 8.5 99 0.0 WSW 9 11 5 6 1021.4 1021.3 0.2
28/07:00am 8.3 6.1 8.0 98 0.1 WSW 9 11 5 6 1021.0 1020.9 0.2
28/06:30am 8.4 6.3 8.1 98 0.1 WSW 9 13 5 7 1020.8 1020.7 0.2
28/06:00am 8.5 6.0 8.2 98 0.1 WSW 11 13 6 7 1020.5 1020.4 0.2
28/05:30am 8.8 8.1 8.5 98 0.1 SW 2 6 1 3 1020.1 1020.0 0.2
28/05:00am 9.1 7.1 8.8 98 0.1 WSW 9 11 5 6 1020.2 1020.1 0.2
28/04:30am 9.0 7.5 8.6 97 0.2 W 6 7 3 4 1019.9 1019.8 0.2
28/04:00am 9.5 9.3 8.9 96 0.3 CALM 0 0 0 0 1020.0 1019.9 0.2
28/03:30am 10.2 8.8 9.7 97 0.3 SW 7 11 4 6 1020.1 1020.0 0.2
28/03:00am 10.3 9.0 9.8 97 0.3 SW 7 9 4 5 1020.2 1020.1 0.0
28/02:30am 10.3 9.1 9.7 96 0.3 SSW 6 7 3 4 1020.2 1020.1 0.0
28/02:00am 10.7 9.1 10.2 97 0.3 SW 9 11 5 6 1020.2 1020.1 0.0
28/01:30am 10.5 9.3 10.2 98 0.2 SW 7 9 4 5 1020.2 1020.1 0.0
28/01:00am 10.3 8.2 9.8 97 0.3 SW 11 13 6 7 1020.1 1020.0 0.0
28/12:30am 10.3 8.6 9.8 97 0.3 SW 9 11 5 6 1020.1 1020.0 0.0
28/12:00am 10.1 9.2 9.3 95 0.4 SW 4 9 2 5 1020.4 1020.3 0.0
 
Date/Time
EST
Temp
°C
App
Temp
°C
Dew
Point
°C
Rel
Hum
%
Delta-T
°C
Wind Press
QNH
hPa
Press
MSL
hPa
Rain since
9am
mm
Dir  Spd
km/h
Gust
km/h
Spd
kts
Gust
kts
27/11:30pm 10.4 9.9 9.3 93 0.5 SSE 2 6 1 3 1020.4 1020.3 0.0
27/11:00pm 10.5 9.2 9.1 91 0.7 SW 6 7 3 4 1020.8 1020.7 0.0
27/10:30pm 12.3 10.9 10.9 91 0.7 SSW 9 11 5 6 1020.9 1020.8 0.0
27/10:00pm 12.3 11.0 11.4 94 0.5 SW 9 13 5 7 1021.2 1021.1 0.0
27/09:30pm 11.9 10.6 11.1 95 0.4 SW 9 11 5 6 1021.2 1021.1 0.0
27/09:00pm 11.6 10.6 10.3 92 0.7 SW 6 7 3 4 1021.1 1021.0 0.0
27/08:30pm 12.6 12.5 10.8 89 0.9 WSW 2 6 1 3 1021.2 1021.1 0.0
27/08:00pm 12.8 13.2 11.2 90 0.8 CALM 0 0 0 0 1021.1 1021.0 0.0
27/07:30pm 13.4 13.9 11.5 88 1.0 CALM 0 0 0 0 1021.0 1020.9 0.0
27/07:00pm 13.7 14.2 11.6 87 1.1 CALM 0 0 0 0 1020.9 1020.8 0.0
27/06:30pm 13.7 13.4 11.4 86 1.2 SSE 4 7 2 4 1020.7 1020.6 0.0
27/06:00pm 14.2 13.5 11.9 86 1.2 SE 7 9 4 5 1020.3 1020.2 0.0
27/05:30pm 14.8 14.1 12.1 84 1.5 SE 7 9 4 5 1020.2 1020.1 0.0
27/05:00pm 15.5 14.5 12.4 82 1.7 SE 9 11 5 6 1019.9 1019.8 0.0
27/04:30pm 16.2 15.6 12.2 77 2.2 SE 7 9 4 5 1019.8 1019.7 0.0
27/04:00pm 17.1 16.0 12.0 72 2.8 SE 9 11 5 6 1020.0 1019.9 0.0
27/03:30pm 18.1 17.1 12.3 69 3.2 ESE 9 11 5 6 1019.9 1019.8 0.0
27/03:00pm 18.2 17.2 12.4 69 3.2 SSE 9 13 5 7 1020.0 1019.9 0.0
27/02:30pm 18.4 16.6 12.2 67 3.4 SE 13 17 7 9 1020.1 1020.0 0.0
27/02:00pm 18.9 18.0 11.2 61 4.2 ENE 7 9 4 5 1020.4 1020.3 0.0
27/01:30pm 19.4 19.4 12.4 64 3.9 NE 4 7 2 4 1020.6 1020.5 0.0
27/01:00pm 17.4 16.7 11.4 68 3.3 N 6 7 3 4 1020.9 1020.8 0.0
27/12:30pm 17.4 16.6 11.2 67 3.4 NNE 6 9 3 5 1021.0 1020.9 0.0
27/12:00pm 17.5 17.5 11.1 66 3.5 WSW 2 6 1 3 1021.3 1021.2 0.0
27/11:30am 17.3 17.3 11.1 67 3.4 SSE 2 6 1 3 1021.8 1021.8 0.0
27/11:00am 18.3 18.4 12.7 70 3.1 W 4 7 2 4 1022.3 1022.3 0.0
27/10:30am 16.4 15.9 12.0 75 2.4 W 6 9 3 5 1022.7 1022.7 0.0
27/10:00am 15.4 14.9 12.2 81 1.7 WNW 6 9 3 5 1023.0 1023.0 0.0
27/09:30am 13.6 13.0 11.8 89 1.0 WSW 6 7 3 4 1022.9 1022.9 0.0
27/09:00am 12.0 10.2 10.9 93 0.6 WSW 11 13 6 7 1023.0 1023.0 1.0
27/08:30am 11.2 8.9 10.4 95 0.4 SW 13 17 7 9 1023.2 1023.2 1.0
27/08:00am 10.7 8.7 10.1 96 0.3 WSW 11 17 6 9 1023.1 1023.1 1.0
27/07:30am 10.7 8.7 10.1 96 0.3 W 11 13 6 7 1022.8 1022.8 1.0
27/07:00am 11.2 9.3 10.4 95 0.4 SW 11 15 6 8 1022.6 1022.6 1.0
27/06:30am 11.0 9.1 10.5 97 0.3 SW 11 15 6 8 1022.3 1022.3 1.0
27/06:00am 11.0 9.1 10.5 97 0.3 SW 11 15 6 8 1022.2 1022.2 1.0
27/05:30am 10.7 8.4 10.4 98 0.2 WSW 13 15 7 8 1022.1 1022.1 1.0
27/05:00am 10.6 8.6 10.3 98 0.2 WSW 11 13 6 7 1022.2 1022.2 1.0
27/04:30am 10.6 10.7 10.0 96 0.3 CALM 0 7 0 4 1022.4 1022.4 1.0
27/04:00am 11.4 9.6 10.9 97 0.3 SW 11 15 6 8 1022.2 1022.2 1.0
27/03:30am 11.4 9.3 11.1 98 0.2 WSW 13 15 7 8 1022.2 1022.2 0.8
27/03:00am 11.5 10.1 11.0 97 0.3 WSW 9 13 5 7 1022.8 1022.8 0.8
27/02:30am 11.6 10.2 11.0 96 0.3 WSW 9 11 5 6 1022.8 1022.8 0.8
27/02:00am 12.2 10.9 11.4 95 0.4 WSW 9 13 5 7 1022.9 1022.9 0.8
27/01:30am 12.4 11.3 11.8 96 0.3 WSW 9 15 5 8 1023.2 1023.2 0.8
27/01:00am 12.3 11.7 11.7 96 0.3 WNW 6 7 3 4 1023.4 1023.4 0.8
27/12:30am 12.8 11.8 12.2 96 0.3 W 9 11 5 6 1023.3 1023.3 0.8
27/12:00am 13.0 11.6 12.2 95 0.4 W 11 13 6 7 1023.6 1023.6 0.8
 
Date/Time
EST
Temp
°C
App
Temp
°C
Dew
Point
°C
Rel
Hum
%
Delta-T
°C
Wind Press
QNH
hPa
Press
MSL
hPa
Rain since
9am
mm
Dir  Spd
km/h
Gust
km/h
Spd
kts
Gust
kts
26/11:41pm 13.2 13.4 11.9 92 0.7 NE 2 9 1 5 1024.0 1024.0 0.8
26/11:30pm 13.3 12.8 12.0 92 0.7 NNE 6 7 3 4 1023.9 1023.9 0.8
26/11:28pm 13.3 12.8 12.0 92 0.7 NE 6 7 3 4 1023.9 1023.9 0.8
26/11:00pm 13.4 11.9 11.8 90 0.9 WSW 11 17 6 9 1023.7 1023.7 0.8
26/10:30pm 13.7 12.4 11.4 86 1.2 SW 9 13 5 7 1023.5 1023.5 0.8
26/10:00pm 13.3 12.2 12.0 92 0.7 SW 9 13 5 7 1023.6 1023.6 0.8
26/09:30pm 13.3 11.4 11.9 91 0.8 WSW 13 19 7 10 1023.5 1023.5 0.8
26/09:00pm 13.8 12.3 11.8 88 1.1 SSW 11 15 6 8 1023.4 1023.4 0.8
26/08:30pm 13.8 12.3 11.8 88 1.1 SSW 11 17 6 9 1023.3 1023.3 0.8
26/08:00pm 13.6 11.9 12.5 93 0.6 SW 13 17 7 9 1023.5 1023.5 0.8
26/07:30pm 13.5 12.0 11.9 90 0.9 SW 11 15 6 8 1023.4 1023.4 0.8
26/07:00pm 14.1 12.7 12.1 88 1.1 SSW 11 17 6 9 1023.2 1023.2 0.8
26/06:30pm 14.0 12.5 11.9 87 1.1 SW 11 13 6 7 1022.8 1022.8 0.6
26/06:00pm 14.6 13.8 11.6 82 1.6 S 7 9 4 5 1022.9 1022.9 0.6
26/05:30pm 15.2 13.4 11.0 76 2.2 SSW 11 15 6 8 1022.7 1022.7 0.6
26/05:00pm 15.7 12.8 10.9 73 2.6 S 17 24 9 13 1022.6 1022.6 0.6
26/04:30pm 15.5 14.3 11.7 78 2.1 S 9 17 5 9 1022.4 1022.4 0.6
26/04:00pm 15.2 14.3 12.7 85 1.4 SSW 9 13 5 7 1022.1 1022.1 0.6
26/03:30pm 15.6 14.3 12.4 81 1.8 SSE 11 20 6 11 1021.9 1021.9 0.6
26/03:00pm 18.2 15.0 11.3 64 3.8 SSE 19 26 10 14 1021.6 1021.5 0.2
26/02:30pm 17.6 14.2 11.4 67 3.4 SE 20 32 11 17 1021.7 1021.6 0.2
26/02:00pm 17.3 14.8 11.1 67 3.3 SSE 15 26 8 14 1021.6 1021.5 0.2
26/01:30pm 16.4 15.4 12.4 77 2.2 SSW 9 13 5 7 1021.7 1021.6 0.2
26/01:00pm 17.2 15.3 11.9 71 2.9 SSW 13 19 7 10 1022.1 1022.1 0.2
26/12:30pm 17.1 16.0 13.2 78 2.2 SSW 11 15 6 8 1022.2 1022.2 0.2
26/12:00pm 17.0 15.6 13.3 79 2.1 SSW 13 19 7 10 1022.4 1022.4 0.2
26/11:30am 16.6 15.2 13.5 82 1.7 SSW 13 19 7 10 1022.8 1022.8 0.2
26/11:00am 16.5 15.4 14.2 86 1.3 S 13 15 7 8 1023.1 1023.1 0.2
26/10:31am 15.6 14.4 14.1 91 0.9 S 13 20 7 11 1023.2 1023.2 0.2
26/10:30am 15.6 14.4 14.1 91 0.9 S 13 20 7 11 1023.2 1023.2 0.2
26/10:00am 16.3 15.0 13.8 85 1.4 S 13 20 7 11 1023.0 1023.0 0.0
26/09:55am 16.5 15.2 13.8 84 1.5 SSW 13 20 7 11 1023.1 1023.1 0.0
26/09:30am 15.5 14.0 13.2 86 1.3 SSW 13 20 7 11 1023.1 1023.1 0.0
26/09:00am 15.1 13.8 13.6 91 0.8 SW 13 17 7 9 1023.0 1023.0 2.0
26/08:56am 15.3 14.2 14.2 93 0.6 SW 13 17 7 9 1022.9 1022.9 2.0
26/08:42am 14.2 13.1 13.2 94 0.6 SW 11 17 6 9 1022.7 1022.7 2.0
26/08:30am 13.7 12.9 12.9 95 0.4 WSW 9 15 5 8 1022.6 1022.6 2.0
26/08:00am 13.0 11.9 12.1 94 0.5 WSW 9 13 5 7 1022.5 1022.5 2.0
26/07:30am 12.7 11.6 11.8 94 0.5 SW 9 13 5 7 1022.3 1022.3 2.0
26/07:00am 12.6 11.4 11.5 93 0.6 SW 9 15 5 8 1022.1 1022.1 2.0
26/06:30am 12.6 10.6 11.5 93 0.6 SW 13 17 7 9 1021.7 1021.6 2.0
26/06:00am 12.6 10.6 11.5 93 0.6 SW 13 19 7 10 1021.5 1021.4 2.0
26/05:30am 12.7 10.6 11.3 91 0.7 SW 13 22 7 12 1021.5 1021.4 2.0
26/05:00am 12.7 10.7 11.4 92 0.7 SW 13 20 7 11 1021.1 1021.0 2.0
26/04:30am 12.6 10.1 11.2 91 0.7 SW 15 20 8 11 1021.0 1020.9 1.8
26/04:15am 12.8 10.8 11.4 91 0.7 SW 13 19 7 10 1020.8 1020.7 1.8
26/04:05am 13.0 11.0 11.6 91 0.7 SW 13 19 7 10 1020.9 1020.8 1.8
26/04:00am 13.1 11.1 11.5 90 0.8 SW 13 19 7 10 1020.9 1020.8 1.8
26/03:30am 12.9 10.8 11.3 90 0.8 SW 13 17 7 9 1021.0 1020.9 1.6
26/03:00am 12.8 10.7 11.2 90 0.8 SW 13 19 7 10 1020.8 1020.7 1.6
26/02:30am 13.0 11.0 11.6 91 0.7 SW 13 19 7 10 1021.1 1021.0 1.6
26/02:00am 13.7 11.3 11.4 86 1.2 SW 15 22 8 12 1021.1 1021.0 1.6
26/01:30am 13.2 11.1 11.1 87 1.1 SSW 13 20 7 11 1021.1 1021.0 1.6
26/01:00am 13.0 11.3 11.1 88 1.0 SW 11 20 6 11 1021.1 1021.0 1.6
26/12:30am 13.0 11.4 11.4 90 0.8 SW 11 17 6 9 1021.3 1021.2 1.6
26/12:00am 13.4 11.1 11.6 89 1.0 SSW 15 26 8 14 1021.3 1021.2 1.6
 
Date/Time
EST
Temp
°C
App
Temp
°C
Dew
Point
°C
Rel
Hum
%
Delta-T
°C
Wind Press
QNH
hPa
Press
MSL
hPa
Rain since
9am
mm
Dir  Spd
km/h
Gust
km/h
Spd
kts
Gust
kts
25/11:30pm 13.6 10.3 11.5 87 1.1 SSW 20 32 11 17 1021.1 1021.0 1.6
25/11:00pm 13.3 11.8 11.9 91 0.7 SW 11 24 6 13 1021.1 1021.0 1.4
25/10:30pm 13.4 11.2 12.0 91 0.8 SSW 15 24 8 13 1021.0 1020.9 1.2
25/10:00pm 13.7 10.5 11.8 88 1.0 SSW 20 33 11 18 1020.7 1020.6 1.2
25/09:30pm 13.7 11.1 12.1 90 0.9 SW 17 26 9 14 1020.6 1020.5 1.2
25/09:00pm 13.7 10.7 11.9 89 1.0 SSW 19 28 10 15 1020.4 1020.3 0.8
25/08:30pm 14.3 11.0 11.6 84 1.5 SSW 20 32 11 17 1020.0 1019.9 0.2
25/08:00pm 14.3 11.0 11.5 83 1.5 SSW 20 32 11 17 1019.8 1019.7 0.0
25/07:30pm 14.5 11.1 11.3 81 1.7 SSW 20 37 11 20 1019.5 1019.4 0.0
25/07:00pm 14.4 11.2 11.2 81 1.7 SSW 19 32 10 17 1019.3 1019.2 0.0
25/06:30pm 14.9 10.6 10.9 77 2.1 SSW 24 39 13 21 1019.1 1019.0 0.0
25/06:00pm 14.7 10.4 10.9 78 2.0 SSW 24 39 13 21 1018.8 1018.7 0.0
25/05:30pm 15.1 11.2 10.9 76 2.2 SSW 22 37 12 20 1018.5 1018.4 0.0
25/05:00pm 15.0 11.1 10.8 76 2.2 SSW 22 39 12 21 1018.3 1018.2 0.0
25/04:30pm 15.6 12.0 10.4 71 2.7 SSW 20 39 11 21 1018.0 1017.9 0.0
25/04:13pm 15.8 10.6 10.1 69 3.0 SSW 28 48 15 26 1017.8 1017.7 0.0
25/04:00pm 15.8 11.3 10.1 69 3.0 SSW 24 43 13 23 1017.7 1017.6 0.0
25/03:30pm 15.8 12.1 10.1 69 3.0 SW 20 37 11 20 1017.7 1017.6 0.0

Latest Capital City Observations: Canberra | Sydney | Melbourne | Brisbane | Adelaide | Perth | Hobart | Darwin

Other formats

Comma delimited format used in spreadsheet applications
http://www.bom.gov.au/fwo/IDN60901/IDN60901.95761.axf

JavaScript Object Notation format (JSON) in row-major order
http://www.bom.gov.au/fwo/IDN60901/IDN60901.95761.json

Data quality

Most of these data are generated automatically and are frequently updated. Quality checks on data are not normally performed. It is possible for incorrect values to appear. Refer to information at About Latest Weather Observations and please check the disclaimer before using these data.